createdAt,value
2018-08-09T00:01:46.792Z,23.70
2018-08-09T00:04:15.968Z,23.70
2018-08-09T00:06:45.276Z,23.70
2018-08-09T00:09:14.457Z,23.60
2018-08-09T00:11:43.652Z,23.60
2018-08-09T00:14:13.185Z,23.60
2018-08-09T00:16:42.634Z,23.60
2018-08-09T00:19:11.825Z,23.60
2018-08-09T00:21:41.046Z,23.30
2018-08-09T00:24:10.234Z,23.20
2018-08-09T00:26:39.469Z,23.20
2018-08-09T00:29:08.657Z,23.30
2018-08-09T00:31:37.872Z,23.20
2018-08-09T00:34:07.234Z,23.20
2018-08-09T00:36:36.432Z,23.20
2018-08-09T00:39:08.857Z,23.10
2018-08-09T00:41:38.079Z,23.10
2018-08-09T00:44:07.264Z,23.10
2018-08-09T00:46:36.711Z,23.00
2018-08-09T00:49:06.803Z,22.90
2018-08-09T00:51:36.371Z,22.90
2018-08-09T00:54:05.830Z,22.90
2018-08-09T00:56:35.042Z,22.90
2018-08-09T00:59:04.517Z,22.90
2018-08-09T01:01:33.737Z,22.80
2018-08-09T01:04:02.939Z,22.80
2018-08-09T01:06:32.185Z,22.80
2018-08-09T01:09:07.201Z,22.90
2018-08-09T01:11:37.645Z,22.80
2018-08-09T01:14:07.025Z,22.80
2018-08-09T01:16:36.277Z,22.60
2018-08-09T01:19:05.504Z,22.50
2018-08-09T01:21:34.716Z,22.50
2018-08-09T01:24:03.937Z,22.40
2018-08-09T01:26:33.172Z,22.40
2018-08-09T01:29:02.429Z,22.20
2018-08-09T01:31:34.225Z,22.30
2018-08-09T01:34:05.134Z,22.30
2018-08-09T01:36:34.943Z,22.30
2018-08-09T01:39:06.674Z,22.30
2018-08-09T01:41:35.860Z,22.30
2018-08-09T01:44:06.292Z,22.20
2018-08-09T01:46:35.486Z,22.00
2018-08-09T01:49:04.741Z,22.00
2018-08-09T01:51:34.020Z,22.00
2018-08-09T01:54:03.256Z,22.00
2018-08-09T01:56:32.446Z,21.90
2018-08-09T01:59:01.698Z,22.00
2018-08-09T02:01:30.884Z,22.00
2018-08-09T02:04:00.097Z,22.00
2018-08-09T02:06:29.316Z,22.00
2018-08-09T02:09:02.676Z,22.00
2018-08-09T02:11:31.869Z,21.90
2018-08-09T02:14:01.065Z,21.90
2018-08-09T02:16:30.278Z,21.80
2018-08-09T02:18:59.537Z,21.90
2018-08-09T02:21:28.751Z,21.70
2018-08-09T02:23:57.992Z,21.80
2018-08-09T02:26:27.217Z,21.70
2018-08-09T02:28:56.420Z,21.70
2018-08-09T02:31:25.642Z,21.60
2018-08-09T02:33:54.865Z,21.70
2018-08-09T02:36:24.152Z,21.70
2018-08-09T02:38:53.716Z,21.50
2018-08-09T02:41:23.138Z,21.50
2018-08-09T02:43:52.344Z,21.50
2018-08-09T02:46:21.590Z,21.50
2018-08-09T02:48:51.740Z,21.60
2018-08-09T02:51:20.962Z,21.70
2018-08-09T02:53:50.178Z,21.70
2018-08-09T02:56:19.379Z,21.80
2018-08-09T02:58:48.560Z,21.80
2018-08-09T03:01:17.750Z,21.80
2018-08-09T03:03:46.950Z,21.90
2018-08-09T03:06:16.148Z,21.90
2018-08-09T03:08:45.332Z,21.90
2018-08-09T03:11:14.537Z,21.90
2018-08-09T03:13:43.801Z,21.90
2018-08-09T03:16:13.006Z,21.90
2018-08-09T03:18:42.202Z,21.90
2018-08-09T03:21:11.415Z,21.80
2018-08-09T03:23:40.608Z,21.60
2018-08-09T03:26:09.815Z,21.50
2018-08-09T03:28:39.008Z,21.30
2018-08-09T03:31:08.206Z,21.20
2018-08-09T03:33:37.412Z,21.30
2018-08-09T03:36:06.730Z,21.30
2018-08-09T03:38:35.936Z,21.20
2018-08-09T03:41:05.145Z,21.10
2018-08-09T03:43:34.333Z,21.10
2018-08-09T03:46:03.531Z,21.00
2018-08-09T03:48:33.149Z,20.90
2018-08-09T03:51:02.356Z,20.90
2018-08-09T03:53:31.592Z,20.90
2018-08-09T03:56:00.784Z,20.80
2018-08-09T03:58:29.993Z,20.80
2018-08-09T04:00:59.225Z,20.80
2018-08-09T04:03:28.430Z,20.70
2018-08-09T04:05:57.622Z,20.70
2018-08-09T04:08:26.833Z,20.70
2018-08-09T04:10:56.033Z,20.70
2018-08-09T04:13:25.240Z,20.80
2018-08-09T04:15:54.470Z,20.70
2018-08-09T04:18:23.699Z,20.90
2018-08-09T04:20:52.903Z,20.90
2018-08-09T04:23:22.121Z,20.90
2018-08-09T04:25:51.310Z,20.90
2018-08-09T04:28:20.525Z,20.90
2018-08-09T04:30:49.779Z,20.70
2018-08-09T04:33:19.001Z,20.80
2018-08-09T04:35:48.201Z,20.70
2018-08-09T04:38:17.412Z,20.60
2018-08-09T04:40:46.692Z,20.60
2018-08-09T04:43:15.917Z,20.50
2018-08-09T04:45:45.141Z,20.50
2018-08-09T04:48:14.350Z,20.50
2018-08-09T04:50:43.651Z,20.40
2018-08-09T04:53:12.853Z,20.30
2018-08-09T04:55:42.116Z,20.30
2018-08-09T04:58:11.370Z,20.30
2018-08-09T05:00:40.597Z,20.30
2018-08-09T05:03:09.835Z,20.50
2018-08-09T05:05:39.069Z,20.50
2018-08-09T05:08:08.574Z,20.60
2018-08-09T05:10:37.780Z,20.60
2018-08-09T05:13:07.016Z,20.70
2018-08-09T05:15:36.209Z,20.70
2018-08-09T05:18:05.557Z,20.60
2018-08-09T05:20:34.739Z,20.60
2018-08-09T05:23:04.013Z,20.60
2018-08-09T05:25:33.234Z,20.60
2018-08-09T05:28:02.491Z,20.60
2018-08-09T05:30:31.691Z,20.60
2018-08-09T05:33:00.913Z,20.60
2018-08-09T05:35:30.160Z,20.60
2018-08-09T05:37:59.453Z,20.50
2018-08-09T05:40:28.969Z,20.50
2018-08-09T05:42:58.232Z,20.50
2018-08-09T05:45:27.440Z,20.50
2018-08-09T05:47:56.684Z,20.60
2018-08-09T05:50:25.947Z,20.70
2018-08-09T05:52:55.296Z,20.80
2018-08-09T05:55:24.542Z,21.00
2018-08-09T05:57:53.789Z,21.00
2018-08-09T06:00:23.016Z,21.10
2018-08-09T06:02:52.236Z,21.30
2018-08-09T06:05:21.469Z,21.40
2018-08-09T06:07:50.683Z,21.50
2018-08-09T06:10:19.942Z,21.70
2018-08-09T06:12:50.168Z,21.80
2018-08-09T06:15:19.452Z,22.00
2018-08-09T06:17:48.798Z,22.10
2018-08-09T06:20:18.053Z,22.20
2018-08-09T06:22:47.256Z,22.30
2018-08-09T06:25:16.522Z,22.40
2018-08-09T06:27:45.726Z,22.60
2018-08-09T06:30:14.993Z,22.70
2018-08-09T06:32:44.276Z,22.80
2018-08-09T06:35:13.513Z,22.90
2018-08-09T06:37:42.734Z,23.00
2018-08-09T06:40:14.068Z,23.20
2018-08-09T06:42:44.369Z,23.30
2018-08-09T06:45:13.669Z,23.40
2018-08-09T06:47:42.891Z,23.50
2018-08-09T06:50:12.542Z,23.70
2018-08-09T06:52:41.773Z,23.80
2018-08-09T06:55:11.036Z,23.80
2018-08-09T06:57:40.257Z,23.80
2018-08-09T07:00:12.342Z,24.00
2018-08-09T07:02:41.723Z,24.10
2018-08-09T07:05:10.949Z,24.10
2018-08-09T07:07:40.918Z,24.10
2018-08-09T07:10:10.461Z,24.20
2018-08-09T07:14:04.149Z,24.30
2018-08-09T07:16:33.420Z,24.40
2018-08-09T07:19:02.824Z,24.60
2018-08-09T07:21:32.083Z,24.70
2018-08-09T07:24:01.357Z,24.80
2018-08-09T07:26:30.635Z,24.90
2018-08-09T07:28:59.875Z,24.90
2018-08-09T07:31:29.087Z,25.00
2018-08-09T07:33:58.371Z,25.10
2018-08-09T07:36:27.707Z,25.20
2018-08-09T07:38:56.903Z,25.30
2018-08-09T07:41:26.434Z,25.40
2018-08-09T07:43:56.083Z,25.60
2018-08-09T07:46:25.320Z,25.70
2018-08-09T07:48:54.565Z,25.90
2018-08-09T07:51:23.812Z,26.00
2018-08-09T07:53:53.081Z,26.10
2018-08-09T07:56:22.476Z,26.20
2018-08-09T07:58:51.690Z,26.30
2018-08-09T08:01:20.932Z,26.40
2018-08-09T08:03:50.198Z,26.50
2018-08-09T08:06:19.449Z,26.70
2018-08-09T08:08:48.649Z,26.80
2018-08-09T08:11:17.886Z,26.90
2018-08-09T08:13:47.086Z,27.00
2018-08-09T08:16:16.306Z,27.10
2018-08-09T08:18:45.521Z,27.30
2018-08-09T08:21:14.833Z,27.50
2018-08-09T08:23:44.048Z,27.60
2018-08-09T08:26:13.225Z,27.60
2018-08-09T08:28:42.456Z,27.90
2018-08-09T08:31:11.662Z,28.00
2018-08-09T08:33:40.912Z,28.20
2018-08-09T08:36:10.183Z,28.40
2018-08-09T08:38:39.412Z,28.50
2018-08-09T08:41:08.715Z,28.60
2018-08-09T08:43:37.959Z,28.80
2018-08-09T08:46:07.209Z,28.90
2018-08-09T08:48:36.429Z,29.10
2018-08-09T08:51:05.639Z,29.30
2018-08-09T08:53:34.966Z,29.50
2018-08-09T08:56:04.181Z,29.70
2018-08-09T08:58:33.441Z,29.90
2018-08-09T09:01:02.741Z,30.00
2018-08-09T09:03:32.346Z,30.20
2018-08-09T09:06:01.525Z,30.20
2018-08-09T09:08:30.755Z,30.30
2018-08-09T09:10:59.979Z,30.30
2018-08-09T09:13:29.221Z,30.10
2018-08-09T09:15:58.462Z,30.10
2018-08-09T09:18:27.696Z,30.30
2018-08-09T09:20:56.949Z,30.50
2018-08-09T09:23:33.024Z,30.70
2018-08-09T09:26:02.240Z,30.90
2018-08-09T09:28:31.473Z,31.00
2018-08-09T09:31:00.677Z,31.10
2018-08-09T09:33:29.972Z,31.00
2018-08-09T09:35:59.173Z,31.20
2018-08-09T09:38:28.421Z,31.30
2018-08-09T09:40:57.645Z,31.40
2018-08-09T09:43:26.900Z,31.50
2018-08-09T09:45:56.174Z,31.70
2018-08-09T09:48:25.448Z,32.10
2018-08-09T09:50:54.689Z,32.40
2018-08-09T09:53:23.914Z,32.70
2018-08-09T09:55:53.150Z,32.90
2018-08-09T09:58:22.360Z,33.00
2018-08-09T10:00:56.765Z,33.00
2018-08-09T10:03:26.016Z,33.30
2018-08-09T10:05:55.242Z,33.50
2018-08-09T10:08:24.517Z,33.60
2018-08-09T10:10:53.743Z,33.70
2018-08-09T10:13:22.998Z,33.60
2018-08-09T10:15:52.257Z,33.50
2018-08-09T10:18:21.457Z,33.20
2018-08-09T10:20:50.658Z,33.40
2018-08-09T10:23:19.938Z,33.60
2018-08-09T10:25:49.155Z,33.70
2018-08-09T10:28:18.354Z,34.10
2018-08-09T10:30:47.596Z,34.30
2018-08-09T10:33:16.780Z,34.20
2018-08-09T10:35:46.091Z,34.10
2018-08-09T10:38:15.398Z,34.10
2018-08-09T10:40:44.616Z,33.60
2018-08-09T10:43:13.806Z,33.70
2018-08-09T10:45:43.032Z,33.90
2018-08-09T10:48:12.231Z,33.90
2018-08-09T10:50:41.564Z,34.10
2018-08-09T10:53:10.775Z,34.30
2018-08-09T10:55:40.119Z,33.80
2018-08-09T10:58:09.288Z,33.90
2018-08-09T11:00:38.594Z,33.90
2018-08-09T11:03:07.834Z,33.80
2018-08-09T11:05:37.080Z,34.00
2018-08-09T11:08:06.383Z,33.90
2018-08-09T11:10:35.619Z,34.10
2018-08-09T11:13:04.915Z,34.10
2018-08-09T11:15:34.800Z,34.10
2018-08-09T11:18:04.075Z,34.20
2018-08-09T11:20:33.324Z,34.50
2018-08-09T11:23:02.525Z,34.30
2018-08-09T11:25:31.761Z,34.30
2018-08-09T11:28:01.017Z,34.60
2018-08-09T11:30:30.239Z,34.70
2018-08-09T11:32:59.467Z,34.70
2018-08-09T11:35:28.729Z,34.80
2018-08-09T11:37:57.938Z,34.90
2018-08-09T11:40:27.170Z,35.20
2018-08-09T11:42:56.408Z,35.20
2018-08-09T11:45:25.797Z,34.70
2018-08-09T11:48:01.350Z,34.40
2018-08-09T11:50:30.628Z,34.30
2018-08-09T11:52:59.844Z,34.70
2018-08-09T11:55:29.171Z,34.80
2018-08-09T11:57:58.376Z,34.90
2018-08-09T12:00:27.591Z,34.90
2018-08-09T12:02:56.817Z,35.20
2018-08-09T12:05:26.092Z,35.00
2018-08-09T12:07:55.318Z,35.00
2018-08-09T12:10:24.547Z,35.10
2018-08-09T12:12:53.732Z,35.10
2018-08-09T12:15:22.995Z,35.00
2018-08-09T12:17:52.261Z,35.00
2018-08-09T12:20:21.553Z,34.70
2018-08-09T12:22:50.892Z,35.10
2018-08-09T12:25:20.125Z,35.40
2018-08-09T12:27:49.381Z,35.60
2018-08-09T12:30:18.670Z,35.20
2018-08-09T12:32:47.884Z,35.20
2018-08-09T12:35:17.084Z,35.40
2018-08-09T12:37:46.307Z,35.40
2018-08-09T12:40:15.808Z,35.40
2018-08-09T12:42:45.038Z,35.10
2018-08-09T12:45:14.347Z,35.10
2018-08-09T12:47:44.023Z,35.20
2018-08-09T12:50:14.406Z,35.30
2018-08-09T12:52:44.706Z,34.90
2018-08-09T12:55:14.876Z,35.20
2018-08-09T12:57:44.177Z,35.50
2018-08-09T13:00:14.449Z,35.50
2018-08-09T13:02:43.706Z,35.80
2018-08-09T13:05:13.215Z,35.50
2018-08-09T13:07:42.853Z,35.50
2018-08-09T13:10:13.441Z,35.20
2018-08-09T13:12:42.749Z,35.20
2018-08-09T13:15:14.332Z,35.20
2018-08-09T13:17:45.135Z,35.00
2018-08-09T13:20:18.021Z,35.00
2018-08-09T13:22:48.038Z,34.60
2018-08-09T13:25:17.232Z,34.20
2018-08-09T13:27:46.466Z,33.80
2018-08-09T13:30:15.846Z,34.30
2018-08-09T13:32:45.497Z,34.40
2018-08-09T13:35:14.698Z,34.50
2018-08-09T13:37:44.053Z,34.90
2018-08-09T13:40:13.334Z,34.40
2018-08-09T13:42:42.552Z,34.00
2018-08-09T13:45:15.028Z,34.30
2018-08-09T13:47:44.271Z,34.40
2018-08-09T13:50:13.891Z,34.20
2018-08-09T13:52:43.381Z,34.30
2018-08-09T13:55:14.814Z,34.30
2018-08-09T13:57:44.465Z,34.40
2018-08-09T14:00:14.428Z,34.50
2018-08-09T14:02:44.929Z,34.30
2018-08-09T14:05:14.135Z,34.30
2018-08-09T14:07:43.948Z,34.70
2018-08-09T14:10:13.404Z,34.90
2018-08-09T14:12:43.225Z,35.00
2018-08-09T14:15:14.521Z,34.50
2018-08-09T14:17:43.764Z,34.60
2018-08-09T14:20:16.105Z,34.60
2018-08-09T14:22:45.341Z,34.30
2018-08-09T14:25:14.670Z,34.10
2018-08-09T14:27:44.001Z,34.40
2018-08-09T14:30:15.630Z,34.70
2018-08-09T14:32:45.505Z,34.70
2018-08-09T14:35:16.278Z,34.50
2018-08-09T14:37:46.502Z,34.80
2018-08-09T14:40:16.652Z,34.90
2018-08-09T14:42:45.913Z,34.80
2018-08-09T14:45:16.633Z,34.20
2018-08-09T14:47:45.937Z,34.30
2018-08-09T14:50:15.178Z,34.10
2018-08-09T14:52:44.465Z,33.90
2018-08-09T14:55:13.990Z,33.50
2018-08-09T14:57:43.493Z,33.60
2018-08-09T15:00:18.073Z,33.70
2018-08-09T15:02:47.563Z,33.70
2018-08-09T15:05:17.472Z,33.90
2018-08-09T15:07:46.719Z,34.10
2018-08-09T15:10:17.464Z,34.00
2018-08-09T15:12:46.733Z,33.70
2018-08-09T15:15:16.033Z,33.30
2018-08-09T15:17:45.256Z,33.40
2018-08-09T15:20:14.845Z,33.20
2018-08-09T15:22:44.139Z,33.20
2018-08-09T15:25:13.447Z,33.20
2018-08-09T15:27:42.705Z,33.00
2018-08-09T15:30:21.358Z,33.20
2018-08-09T15:32:50.605Z,33.10
2018-08-09T15:35:19.881Z,33.40
2018-08-09T15:37:49.125Z,33.50
2018-08-09T15:40:18.381Z,33.60
2018-08-09T15:42:47.612Z,33.70
2018-08-09T15:45:17.144Z,33.70
2018-08-09T15:47:46.488Z,33.70
2018-08-09T15:50:19.338Z,33.50
2018-08-09T15:52:48.626Z,33.60
2018-08-09T15:55:18.681Z,33.60
2018-08-09T15:57:48.118Z,33.50
2018-08-09T16:00:20.624Z,33.40
2018-08-09T16:02:49.871Z,33.40
2018-08-09T16:05:19.108Z,33.30
2018-08-09T16:07:48.356Z,33.30
2018-08-09T16:10:18.770Z,33.20
2018-08-09T16:12:48.512Z,33.20
2018-08-09T16:15:19.022Z,33.10
2018-08-09T16:17:49.072Z,32.90
2018-08-09T16:20:18.353Z,32.80
2018-08-09T16:22:47.861Z,32.80
2018-08-09T16:25:18.835Z,32.70
2018-08-09T16:27:49.389Z,32.70
2018-08-09T16:30:21.337Z,32.70
2018-08-09T16:32:50.650Z,32.80
2018-08-09T16:35:19.994Z,32.80
2018-08-09T16:37:49.423Z,32.80
2018-08-09T16:40:21.773Z,32.70
2018-08-09T16:42:51.067Z,32.70
2018-08-09T16:45:21.357Z,32.70
2018-08-09T16:47:51.776Z,32.70
2018-08-09T16:50:22.742Z,32.80
2018-08-09T16:52:52.437Z,32.80
2018-08-09T16:55:23.344Z,32.70
2018-08-09T16:57:52.636Z,32.80
2018-08-09T17:00:23.932Z,32.70
2018-08-09T17:02:54.678Z,32.70
2018-08-09T17:05:27.263Z,32.80
2018-08-09T17:07:56.853Z,32.80
2018-08-09T17:10:26.619Z,32.80
2018-08-09T17:12:55.960Z,32.90
2018-08-09T17:15:28.402Z,32.90
2018-08-09T17:17:58.695Z,33.00
2018-08-09T17:20:30.481Z,32.90
2018-08-09T17:23:01.217Z,32.90
2018-08-09T17:25:30.529Z,32.90
2018-08-09T17:28:00.431Z,32.80
2018-08-09T17:30:29.977Z,32.70
2018-08-09T17:32:59.572Z,32.70
2018-08-09T17:35:28.860Z,32.70
2018-08-09T17:37:58.181Z,32.60
2018-08-09T17:40:30.243Z,32.50
2018-08-09T17:43:00.211Z,31.30
2018-08-09T17:45:33.282Z,30.70
2018-08-09T17:48:03.118Z,30.20
2018-08-09T17:50:32.448Z,30.00
2018-08-09T17:53:03.289Z,29.80
2018-08-09T17:55:33.273Z,29.50
2018-08-09T17:58:02.590Z,29.10
2018-08-09T18:00:33.227Z,28.90
2018-08-09T18:03:02.515Z,28.50
2018-08-09T18:05:31.724Z,28.30
2018-08-09T18:08:01.068Z,28.30
2018-08-09T18:10:32.486Z,28.20
2018-08-09T18:13:01.809Z,28.10
2018-08-09T18:15:31.792Z,28.10
2018-08-09T18:18:01.933Z,28.00
2018-08-09T18:20:32.904Z,28.00
2018-08-09T18:23:02.190Z,28.00
2018-08-09T18:25:31.438Z,28.00
2018-08-09T18:28:00.701Z,28.00
2018-08-09T18:30:29.921Z,28.00
2018-08-09T18:32:59.304Z,28.00
2018-08-09T18:35:28.497Z,28.00
2018-08-09T18:37:57.766Z,28.00
2018-08-09T18:40:27.899Z,28.00
2018-08-09T18:42:57.222Z,27.90
2018-08-09T18:45:26.485Z,27.80
2018-08-09T18:47:55.693Z,27.70
2018-08-09T18:50:26.680Z,27.70
2018-08-09T18:52:55.965Z,27.70
2018-08-09T18:55:25.206Z,27.70
2018-08-09T18:57:54.490Z,27.60
2018-08-09T19:00:27.638Z,27.60
2018-08-09T19:02:57.144Z,27.50
2018-08-09T19:05:26.897Z,27.40
2018-08-09T19:07:56.361Z,27.30
2018-08-09T19:10:28.336Z,27.30
2018-08-09T19:12:57.541Z,27.20
2018-08-09T19:15:26.822Z,27.20
2018-08-09T19:17:56.066Z,27.20
2018-08-09T19:20:28.268Z,27.20
2018-08-09T19:22:58.094Z,27.10
2018-08-09T19:25:27.353Z,27.00
2018-08-09T19:27:56.621Z,26.90
2018-08-09T19:30:28.306Z,26.90
2018-08-09T19:32:57.608Z,26.80
2018-08-09T19:35:27.482Z,26.80
2018-08-09T19:37:56.749Z,26.70
2018-08-09T19:40:28.527Z,26.70
2018-08-09T19:42:57.978Z,26.60
2018-08-09T19:45:27.281Z,26.50
2018-08-09T19:47:56.622Z,26.50
2018-08-09T19:50:26.157Z,26.50
2018-08-09T19:52:55.417Z,26.40
2018-08-09T19:55:26.010Z,26.30
2018-08-09T19:57:55.243Z,26.00
2018-08-09T20:00:29.665Z,25.90
2018-08-09T20:02:58.925Z,25.90
2018-08-09T20:05:28.233Z,25.80
2018-08-09T20:07:58.184Z,25.70
2018-08-09T20:10:27.433Z,25.70
2018-08-09T20:12:56.672Z,25.60
2018-08-09T20:15:25.888Z,25.50
2018-08-09T20:17:55.149Z,25.50
2018-08-09T20:20:25.599Z,25.40
2018-08-09T20:22:54.955Z,25.30
2018-08-09T20:25:24.136Z,25.30
2018-08-09T20:27:53.353Z,25.10
2018-08-09T20:30:22.601Z,25.10
2018-08-09T20:32:51.823Z,25.00
2018-08-09T20:35:23.305Z,25.00
2018-08-09T20:37:52.907Z,25.00
2018-08-09T20:40:23.166Z,24.90
2018-08-09T20:42:53.474Z,24.80
2018-08-09T20:45:23.832Z,24.80
2018-08-09T20:47:53.254Z,24.70
2018-08-09T20:50:24.326Z,24.50
2018-08-09T20:52:53.539Z,24.40
2018-08-09T20:55:22.935Z,24.30
2018-08-09T20:57:53.139Z,24.30
2018-08-09T21:00:27.226Z,24.30
2018-08-09T21:02:57.816Z,24.20
2018-08-09T21:05:28.489Z,24.10
2018-08-09T21:07:58.066Z,24.10
2018-08-09T21:10:27.635Z,24.10
2018-08-09T21:12:56.924Z,24.00
2018-08-09T21:15:26.215Z,24.00
2018-08-09T21:17:55.413Z,23.90
2018-08-09T21:20:24.690Z,23.90
2018-08-09T21:22:53.919Z,23.90
2018-08-09T21:25:23.152Z,24.00
2018-08-09T21:27:52.361Z,24.00
2018-08-09T21:30:22.862Z,23.90
2018-08-09T21:32:52.413Z,23.90
2018-08-09T21:35:21.633Z,23.90
2018-08-09T21:37:50.841Z,23.90
2018-08-09T21:40:20.102Z,23.80
2018-08-09T21:42:49.297Z,23.80
2018-08-09T21:45:19.865Z,23.70
2018-08-09T21:47:49.036Z,23.80
2018-08-09T21:50:20.703Z,23.70
2018-08-09T21:52:49.948Z,23.70
2018-08-09T21:55:19.225Z,23.70
2018-08-09T21:57:48.729Z,23.60
2018-08-09T22:00:51.980Z,23.60
2018-08-09T22:03:24.507Z,23.60
2018-08-09T22:05:58.998Z,23.60
2018-08-09T22:08:33.437Z,23.60
2018-08-09T22:11:08.336Z,23.60
2018-08-09T22:13:42.825Z,23.60
2018-08-09T22:16:17.331Z,23.50
2018-08-09T22:18:51.892Z,23.60
2018-08-09T22:21:26.256Z,23.60
2018-08-09T22:23:55.482Z,23.50
2018-08-09T22:26:24.760Z,23.40
2018-08-09T22:28:53.972Z,23.40
2018-08-09T22:31:23.244Z,23.40
2018-08-09T22:33:52.462Z,23.50
2018-08-09T22:36:21.756Z,23.40
2018-08-09T22:38:51.935Z,23.40
2018-08-09T22:41:22.401Z,23.40
2018-08-09T22:43:51.600Z,23.40
2018-08-09T22:46:20.838Z,23.30
2018-08-09T22:48:50.045Z,23.40
2018-08-09T22:51:19.282Z,23.40
2018-08-09T22:53:48.492Z,23.40
2018-08-09T22:56:17.717Z,23.40
2018-08-09T22:58:46.936Z,23.30
2018-08-09T23:01:16.168Z,23.20
2018-08-09T23:03:45.419Z,23.30
2018-08-09T23:06:16.053Z,23.20
2018-08-09T23:08:45.261Z,23.20
2018-08-09T23:11:14.491Z,23.20
2018-08-09T23:13:43.696Z,23.20
2018-08-09T23:16:12.989Z,23.20
2018-08-09T23:18:42.210Z,23.20
2018-08-09T23:21:11.409Z,23.20
2018-08-09T23:23:40.604Z,23.20
2018-08-09T23:26:09.846Z,23.30
2018-08-09T23:28:39.050Z,23.30
2018-08-09T23:31:08.277Z,23.30
2018-08-09T23:33:37.475Z,23.20
2018-08-09T23:36:06.872Z,23.10
2018-08-09T23:38:36.076Z,23.00
2018-08-09T23:41:05.313Z,22.90
2018-08-09T23:43:34.531Z,22.90
2018-08-09T23:46:03.757Z,22.90
2018-08-09T23:48:32.953Z,22.80
2018-08-09T23:51:02.169Z,22.80
2018-08-09T23:53:31.380Z,22.80
2018-08-09T23:56:00.608Z,22.70
2018-08-09T23:58:29.814Z,22.70
